Terminal Aerodrome Forecast
Issued by NWS

Current Version | Previous Version | Text Only | Print | Product List | Glossary Off
Versions: 1 2 3 4 5 6 7 8 9 10 11 12 13 14 15 16 17 18 19 20 21 22 23 24 25 26 27 28 29

000
FTUS44 KOHX 281955 AAA
TAFCKV
TAF AMD
KCKV 281955Z 2820/2918 29009G18KT P6SM VCSH SCT060 BKN100
     FM290500 30005KT P6SM BKN100
     FM291000 30004KT P6SM OVC020=

USA.gov is the U.S. government's official web portal to all federal, state and local government web resources and services.